Time;durP1;ratioP1;P1;durP2;ratioP2;P2;SDS_P1;SDS_P2;PMS_P1;PMS_P2;Temp;Humidity;BMP_temperature;BMP_pressure;BME280_temperature;BME280_humidity;BME280_pressure;Samples;Min_cycle;Max_cycle;Signal;HPM_P1;HPM_P2
2022/10/12 00:00:49;;;;;;;1.48;1.33;;;7.80;99.90;;;;;;5024881;28;20037;-77
2022/10/12 00:03:16;;;;;;;1.55;0.85;;;7.80;99.90;;;;;;5023891;28;20046;-77
2022/10/12 00:05:41;;;;;;;2.40;1.25;;;7.80;99.90;;;;;;5006875;28;20076;-77
2022/10/12 00:08:07;;;;;;;1.48;1.38;;;7.80;99.90;;;;;;5025362;28;20515;-77
2022/10/12 00:10:32;;;;;;;2.00;1.75;;;7.80;99.90;;;;;;5007264;28;20484;-77
2022/10/12 00:12:59;;;;;;;2.65;1.85;;;7.80;99.90;;;;;;5025381;28;20445;-77
2022/10/12 00:15:25;;;;;;;1.60;1.27;;;7.80;99.90;;;;;;5024414;28;20053;-77
2022/10/12 00:17:52;;;;;;;1.50;1.05;;;7.70;99.90;;;;;;5023769;28;20064;-77
2022/10/12 00:20:18;;;;;;;1.48;1.23;;;7.70;99.90;;;;;;5025085;28;20139;-77
2022/10/12 00:22:43;;;;;;;1.10;1.00;;;7.80;99.90;;;;;;5024219;28;20081;-77
2022/10/12 00:25:09;;;;;;;1.63;1.52;;;7.70;99.90;;;;;;5024863;28;20675;-77
2022/10/12 00:27:35;;;;;;;2.17;1.60;;;7.70;99.90;;;;;;5024279;28;20049;-78
2022/10/12 00:30:00;;;;;;;2.88;1.38;;;7.70;99.90;;;;;;5024918;28;20042;-77
2022/10/12 00:32:26;;;;;;;1.58;1.48;;;7.80;99.90;;;;;;5023793;28;20504;-77
2022/10/12 00:34:51;;;;;;;7.32;1.83;;;7.80;99.90;;;;;;5033722;28;20102;-77
2022/10/12 00:37:17;;;;;;;1.77;1.52;;;7.80;99.90;;;;;;5043799;28;20155;-77
2022/10/12 00:39:42;;;;;;;2.63;1.90;;;7.80;99.90;;;;;;5044014;28;20088;-77
2022/10/12 00:42:10;;;;;;;5.35;1.75;;;7.80;99.90;;;;;;5044219;28;20041;-77
2022/10/12 00:44:45;;;;;;;2.08;1.88;;;7.80;99.90;;;;;;5043964;28;20049;-77
2022/10/12 00:47:29;;;;;;;1.95;1.30;;;7.80;99.90;;;;;;5043130;28;20041;-77
2022/10/12 00:50:04;;;;;;;1.60;1.48;;;7.80;99.90;;;;;;5025985;28;20045;-77
2022/10/12 00:52:46;;;;;;;2.20;1.13;;;7.80;99.90;;;;;;5044595;28;20120;-78
2022/10/12 00:55:16;;;;;;;3.88;2.60;;;7.80;99.90;;;;;;5043664;28;20080;-76
2022/10/12 00:57:42;;;;;;;2.05;1.95;;;7.80;99.90;;;;;;5043576;28;20123;-77
2022/10/12 01:00:09;;;;;;;2.33;1.90;;;7.80;99.90;;;;;;5044182;28;20045;-77
2022/10/12 01:02:38;;;;;;;2.80;2.60;;;7.90;99.90;;;;;;5024331;28;20045;-78
2022/10/12 01:05:05;;;;;;;2.60;1.98;;;7.90;99.90;;;;;;5025795;28;20040;-78
2022/10/12 01:07:31;;;;;;;2.83;1.83;;;7.90;99.90;;;;;;5125586;22;20015;-77
2022/10/12 01:09:57;;;;;;;2.67;1.98;;;7.90;99.90;;;;;;5025501;28;20041;-77
2022/10/12 01:12:23;;;;;;;3.85;1.65;;;7.90;99.90;;;;;;5043680;28;20090;-76
2022/10/12 01:14:49;;;;;;;3.88;2.75;;;7.90;99.90;;;;;;5043322;28;20052;-76
2022/10/12 01:17:23;;;;;;;1.92;1.70;;;7.80;99.90;;;;;;5043187;28;20191;-76
2022/10/12 01:20:30;;;;;;;3.83;2.45;;;7.90;99.90;;;;;;5043342;28;20045;-77
2022/10/12 01:23:18;;;;;;;2.17;1.55;;;7.90;99.90;;;;;;4993535;28;20084;-77
2022/10/12 01:25:58;;;;;;;3.25;2.75;;;7.90;99.90;;;;;;5057045;28;20040;-76
2022/10/12 01:28:41;;;;;;;1.98;1.55;;;7.90;99.90;;;;;;5063648;28;20052;-77
2022/10/12 01:31:31;;;;;;;1.88;1.70;;;7.90;99.90;;;;;;5062191;28;20044;-76
2022/10/12 01:34:03;;;;;;;1.73;1.63;;;7.90;99.90;;;;;;5010363;28;20052;-77
2022/10/12 01:36:37;;;;;;;1.60;1.47;;;7.80;99.90;;;;;;5025793;28;20049;-76
2022/10/12 01:39:13;;;;;;;1.55;1.45;;;7.80;99.90;;;;;;5043086;28;21400;-77
2022/10/12 01:41:45;;;;;;;2.03;1.48;;;7.80;99.90;;;;;;5042862;28;20053;-77
2022/10/12 01:44:11;;;;;;;1.35;1.30;;;7.80;99.90;;;;;;5043374;28;20047;-77
2022/10/12 01:46:41;;;;;;;1.27;1.17;;;7.80;99.90;;;;;;5042290;28;20391;-77
2022/10/12 01:49:07;;;;;;;3.25;1.50;;;7.80;99.90;;;;;;5045166;28;20033;-77
2022/10/12 01:52:09;;;;;;;1.55;1.40;;;7.80;99.90;;;;;;5047101;28;20060;-77
2022/10/12 01:55:09;;;;;;;1.55;1.17;;;7.80;99.90;;;;;;5046904;28;20388;-77
2022/10/12 01:58:03;;;;;;;1.27;1.17;;;7.80;99.90;;;;;;5009385;28;20045;-77
2022/10/12 02:00:32;;;;;;;1.50;1.40;;;7.80;99.90;;;;;;5028174;28;20052;-78
2022/10/12 02:03:23;;;;;;;2.35;1.92;;;7.80;99.90;;;;;;5009571;28;20132;-77
2022/10/12 02:06:07;;;;;;;3.88;1.38;;;7.70;99.90;;;;;;5034130;28;20045;-77
2022/10/12 02:08:36;;;;;;;2.13;1.25;;;7.70;99.90;;;;;;5025358;28;20212;-77
2022/10/12 02:11:14;;;;;;;3.85;2.08;;;7.70;99.90;;;;;;5026904;28;20543;-77
2022/10/12 02:14:00;;;;;;;3.80;1.58;;;7.70;99.90;;;;;;5027161;28;20030;-77
2022/10/12 02:16:34;;;;;;;2.05;1.95;;;7.70;99.90;;;;;;5026449;28;20049;-78
2022/10/12 02:19:05;;;;;;;2.30;1.40;;;7.70;99.90;;;;;;5026050;28;20045;-77
2022/10/12 02:21:33;;;;;;;4.65;2.30;;;7.70;99.90;;;;;;5026115;28;20077;-77
2022/10/12 02:24:04;;;;;;;1.83;1.73;;;7.70;99.90;;;;;;5027779;28;20116;-77
2022/10/12 02:26:32;;;;;;;2.55;1.45;;;7.70;99.90;;;;;;5007661;28;20042;-77
2022/10/12 02:29:02;;;;;;;3.03;2.72;;;7.70;99.90;;;;;;5007605;28;20057;-77
2022/10/12 02:31:36;;;;;;;2.72;1.55;;;7.70;99.90;;;;;;5006306;28;20120;-78
2022/10/12 02:34:11;;;;;;;2.83;1.67;;;7.70;99.90;;;;;;5014101;28;20065;-78
2022/10/12 02:36:52;;;;;;;2.30;2.10;;;7.70;99.90;;;;;;5026350;28;20041;-78
2022/10/12 02:39:44;;;;;;;3.53;2.42;;;7.80;99.90;;;;;;5026514;28;20049;-77
2022/10/12 02:42:17;;;;;;;2.53;1.77;;;7.70;99.90;;;;;;5026675;28;20447;-77
2022/10/12 02:44:44;;;;;;;2.92;2.72;;;7.70;99.90;;;;;;5025024;28;20050;-76
2022/10/12 02:47:11;;;;;;;2.15;1.83;;;7.70;99.90;;;;;;5026021;28;20052;-77
2022/10/12 02:49:38;;;;;;;2.20;1.58;;;7.70;99.90;;;;;;5026173;28;20045;-77
2022/10/12 02:52:05;;;;;;;2.58;2.00;;;7.70;99.90;;;;;;5025328;28;20052;-77
2022/10/12 02:54:31;;;;;;;2.45;2.30;;;7.80;99.90;;;;;;5025333;28;20042;-77
2022/10/12 02:56:56;;;;;;;5.63;3.03;;;7.80;99.90;;;;;;5025587;28;20045;-76
2022/10/12 02:59:22;;;;;;;7.28;2.85;;;7.70;99.90;;;;;;5026204;28;20128;-77
2022/10/12 03:01:48;;;;;;;1.58;1.48;;;7.80;99.90;;;;;;5025555;28;20124;-77
2022/10/12 03:04:13;;;;;;;3.53;2.28;;;7.80;99.90;;;;;;5026041;28;20509;-77
2022/10/12 03:06:39;;;;;;;2.42;2.25;;;7.80;99.90;;;;;;5025953;28;20046;-77
2022/10/12 03:09:04;;;;;;;2.58;2.15;;;7.80;99.90;;;;;;5040624;28;20444;-76
2022/10/12 03:11:30;;;;;;;5.07;2.20;;;7.80;99.90;;;;;;5046500;28;20120;-77
2022/10/12 03:13:56;;;;;;;2.95;2.53;;;7.80;99.90;;;;;;5045807;28;20090;-77
2022/10/12 03:16:23;;;;;;;4.43;2.60;;;7.80;99.90;;;;;;5044957;28;20146;-77
2022/10/12 03:18:49;;;;;;;5.38;2.55;;;7.80;99.90;;;;;;5045429;28;20523;-77
2022/10/12 03:21:15;;;;;;;4.28;3.30;;;7.80;99.90;;;;;;5045839;28;20090;-78
2022/10/12 03:23:40;;;;;;;3.00;2.53;;;7.70;99.90;;;;;;5045396;28;20135;-77
2022/10/12 03:26:07;;;;;;;2.95;2.65;;;7.70;99.90;;;;;;5062312;28;20041;-78
2022/10/12 03:28:33;;;;;;;4.00;2.53;;;7.70;99.90;;;;;;5065217;28;20048;-77
2022/10/12 03:30:59;;;;;;;5.32;2.28;;;7.70;99.90;;;;;;5065322;28;20040;-76
2022/10/12 03:33:25;;;;;;;2.70;2.42;;;7.70;99.90;;;;;;5046503;28;20059;-77
2022/10/12 03:35:50;;;;;;;6.20;3.95;;;7.70;99.90;;;;;;5045082;28;20037;-76
2022/10/12 03:38:17;;;;;;;4.07;3.45;;;7.70;99.90;;;;;;5027453;28;20506;-77
2022/10/12 03:40:44;;;;;;;3.92;3.17;;;7.70;99.90;;;;;;5044800;28;20044;-77
2022/10/12 03:43:10;;;;;;;4.28;2.88;;;7.70;99.90;;;;;;5045532;28;20072;-77
2022/10/12 03:45:36;;;;;;;6.07;3.53;;;7.70;99.90;;;;;;5045524;28;20427;-78
2022/10/12 03:48:03;;;;;;;6.18;3.97;;;7.70;99.90;;;;;;5026472;28;20060;-77
2022/10/12 03:50:28;;;;;;;7.22;3.85;;;7.70;99.90;;;;;;5045493;28;20491;-77
2022/10/12 03:52:54;;;;;;;4.68;3.47;;;7.70;99.90;;;;;;5044953;28;20087;-77
2022/10/12 03:55:20;;;;;;;2.90;2.70;;;7.70;99.90;;;;;;5045194;28;20067;-77
2022/10/12 03:57:46;;;;;;;5.25;4.28;;;7.70;99.90;;;;;;5044504;28;20380;-77
2022/10/12 04:00:12;;;;;;;14.02;4.20;;;7.70;99.90;;;;;;5026585;28;20075;-77
2022/10/12 04:02:39;;;;;;;5.82;3.65;;;7.70;99.90;;;;;;5043967;28;20048;-77
2022/10/12 04:05:04;;;;;;;6.28;4.07;;;7.70;99.90;;;;;;5045219;28;20384;-77
2022/10/12 04:07:30;;;;;;;4.75;3.40;;;7.70;99.90;;;;;;5044863;28;20071;-77
2022/10/12 04:09:56;;;;;;;6.03;3.47;;;7.70;99.90;;;;;;5026765;28;20048;-76
2022/10/12 04:12:21;;;;;;;4.57;4.22;;;7.70;99.90;;;;;;5043839;28;20523;-77
2022/10/12 04:14:47;;;;;;;12.55;4.40;;;7.70;99.90;;;;;;5010153;28;20073;-77
2022/10/12 04:17:15;;;;;;;4.95;3.05;;;7.70;99.90;;;;;;5044009;28;20053;-76
2022/10/12 04:19:40;;;;;;;3.10;2.72;;;7.60;99.90;;;;;;5026302;28;20053;-76
2022/10/12 04:22:06;;;;;;;5.47;3.88;;;7.70;99.90;;;;;;5044356;28;20602;-77
2022/10/12 04:24:31;;;;;;;5.43;3.72;;;7.70;99.90;;;;;;5030115;28;20052;-77
2022/10/12 04:26:57;;;;;;;10.82;4.85;;;7.70;99.90;;;;;;5064444;28;20044;-77
2022/10/12 04:29:23;;;;;;;4.70;4.30;;;7.60;99.90;;;;;;5054524;28;20037;-77
2022/10/12 04:31:48;;;;;;;4.85;3.97;;;7.60;99.90;;;;;;5043258;28;20564;-76
2022/10/12 04:34:14;;;;;;;4.07;2.60;;;7.60;99.90;;;;;;5044407;28;20222;-76
2022/10/12 04:36:39;;;;;;;3.55;3.03;;;7.60;99.90;;;;;;5043926;28;20041;-77
2022/10/12 04:39:05;;;;;;;8.30;3.30;;;7.60;99.90;;;;;;5044094;28;20051;-77
2022/10/12 04:41:31;;;;;;;3.90;2.75;;;7.60;99.90;;;;;;5044864;28;20609;-77
2022/10/12 04:43:57;;;;;;;5.53;3.30;;;7.60;99.90;;;;;;5044303;28;20052;-77
2022/10/12 04:46:22;;;;;;;4.38;3.45;;;7.70;99.90;;;;;;5043235;28;20037;-76
2022/10/12 04:48:48;;;;;;;5.88;3.40;;;7.60;99.90;;;;;;5025841;28;20048;-76
2022/10/12 04:51:13;;;;;;;4.10;3.70;;;7.60;99.90;;;;;;5043774;28;20655;-76
2022/10/12 04:53:39;;;;;;;2.80;2.50;;;7.60;99.90;;;;;;5043965;28;20438;-76
2022/10/12 04:56:05;;;;;;;4.65;3.47;;;7.60;99.90;;;;;;5026227;28;20045;-76
2022/10/12 04:58:31;;;;;;;3.67;2.45;;;7.50;99.90;;;;;;5043395;28;20054;-76
2022/10/12 05:00:58;;;;;;;4.47;3.03;;;7.50;99.90;;;;;;5043314;28;20128;-76
2022/10/12 05:03:24;;;;;;;3.25;2.80;;;7.50;99.90;;;;;;5044018;28;20131;-76
2022/10/12 05:05:50;;;;;;;4.75;2.58;;;7.50;99.90;;;;;;5036337;28;20120;-77
2022/10/12 05:08:16;;;;;;;6.57;2.97;;;7.50;99.90;;;;;;5033594;28;20473;-76
2022/10/12 05:10:41;;;;;;;4.53;2.63;;;7.50;99.90;;;;;;5038009;28;20107;-76
2022/10/12 05:13:07;;;;;;;5.07;3.05;;;7.50;99.90;;;;;;5027001;28;20049;-76
2022/10/12 05:15:33;;;;;;;3.50;3.25;;;7.50;99.90;;;;;;5026821;28;20049;-77
2022/10/12 05:17:58;;;;;;;4.20;2.92;;;7.50;99.90;;;;;;5043025;28;20041;-76
2022/10/12 05:20:24;;;;;;;3.45;2.55;;;7.50;99.90;;;;;;5029272;28;20395;-77
2022/10/12 05:22:49;;;;;;;4.80;3.17;;;7.50;99.90;;;;;;5032676;28;20067;-76
2022/10/12 05:25:15;;;;;;;3.45;2.78;;;7.60;99.90;;;;;;5052542;28;20029;-76
2022/10/12 05:27:41;;;;;;;7.22;3.20;;;7.50;99.90;;;;;;5045359;28;20045;-76
2022/10/12 05:30:07;;;;;;;5.47;2.88;;;7.50;99.90;;;;;;5041645;28;20454;-76
2022/10/12 05:32:33;;;;;;;3.67;2.50;;;7.50;99.90;;;;;;5040145;28;20495;-76
2022/10/12 05:34:59;;;;;;;3.80;2.90;;;7.50;99.90;;;;;;5029683;28;20041;-76
2022/10/12 05:37:25;;;;;;;4.80;3.20;;;7.50;99.90;;;;;;5017045;28;20037;-76
2022/10/12 05:39:50;;;;;;;5.18;3.35;;;7.40;99.90;;;;;;5043978;28;20091;-78
2022/10/12 05:42:16;;;;;;;2.88;2.08;;;7.50;99.90;;;;;;5023979;28;20116;-78
2022/10/12 05:44:42;;;;;;;10.00;4.60;;;7.40;99.90;;;;;;5041890;28;20048;-78
2022/10/12 05:47:07;;;;;;;7.35;3.50;;;7.40;99.90;;;;;;5022370;28;20033;-77
2022/10/12 05:49:33;;;;;;;6.30;3.22;;;7.40;99.90;;;;;;5025336;28;20061;-77
2022/10/12 05:51:59;;;;;;;5.55;3.28;;;7.40;99.90;;;;;;5023813;28;20037;-81
2022/10/12 05:54:24;;;;;;;3.92;2.67;;;7.30;99.90;;;;;;5041358;28;20056;-81
2022/10/12 05:56:50;;;;;;;4.80;3.58;;;7.30;99.90;;;;;;5042514;28;20041;-82
2022/10/12 05:59:16;;;;;;;4.28;3.33;;;7.30;99.90;;;;;;5041960;28;20049;-81
2022/10/12 06:01:41;;;;;;;3.35;2.53;;;7.30;99.90;;;;;;5042283;28;20442;-82
2022/10/12 06:04:07;;;;;;;4.88;3.03;;;7.30;99.90;;;;;;5021790;28;20064;-84
2022/10/12 06:06:32;;;;;;;3.55;3.17;;;7.30;99.90;;;;;;5043135;28;20138;-79
2022/10/12 06:08:58;;;;;;;3.08;2.67;;;7.20;99.90;;;;;;5042848;28;20081;-81
2022/10/12 06:11:24;;;;;;;3.30;3.00;;;7.20;99.90;;;;;;5031658;28;20051;-80
2022/10/12 06:13:49;;;;;;;3.15;2.88;;;7.30;99.90;;;;;;5029562;28;20525;-81
2022/10/12 06:16:15;;;;;;;3.88;2.55;;;7.20;99.90;;;;;;5053650;28;20399;-83
2022/10/12 06:18:40;;;;;;;8.18;2.83;;;7.20;99.90;;;;;;5050632;28;20048;-83
2022/10/12 06:21:06;;;;;;;5.85;3.78;;;7.20;99.90;;;;;;5032910;28;20076;-85
2022/10/12 06:23:31;;;;;;;6.28;3.67;;;7.20;99.90;;;;;;5051585;28;20041;-80
2022/10/12 06:25:57;;;;;;;6.57;3.53;;;7.20;99.90;;;;;;5044202;28;20215;-82
2022/10/12 06:28:22;;;;;;;3.55;2.55;;;7.20;99.90;;;;;;5024195;28;20614;-83
2022/10/12 06:30:57;;;;;;;3.40;3.08;;;7.20;99.90;;;;;;5040512;28;20132;-84
2022/10/12 06:33:23;;;;;;;9.70;3.38;;;7.20;99.90;;;;;;5041196;28;20143;-84
2022/10/12 06:35:49;;;;;;;4.25;2.83;;;7.20;99.90;;;;;;5044317;28;20048;-84
2022/10/12 06:38:15;;;;;;;5.82;3.53;;;7.10;99.90;;;;;;5045271;28;20187;-84
2022/10/12 06:40:41;;;;;;;6.43;4.25;;;7.20;99.90;;;;;;5027071;28;20132;-82
2022/10/12 06:43:06;;;;;;;6.53;3.47;;;7.20;99.90;;;;;;5045131;28;20049;-81
2022/10/12 06:45:32;;;;;;;5.40;3.47;;;7.20;99.90;;;;;;5026390;28;20037;-84
2022/10/12 06:47:58;;;;;;;6.05;3.20;;;7.20;99.90;;;;;;5027848;28;20041;-84
2022/10/12 06:50:25;;;;;;;8.18;3.90;;;7.20;99.90;;;;;;5045216;28;20045;-82
2022/10/12 06:52:51;;;;;;;5.07;3.78;;;7.20;99.90;;;;;;5026704;28;20111;-82
2022/10/12 06:55:17;;;;;;;4.28;3.60;;;7.20;99.90;;;;;;5045200;28;20815;-84
2022/10/12 06:57:42;;;;;;;6.25;4.68;;;7.20;99.90;;;;;;5026928;28;20041;-85
2022/10/12 07:00:08;;;;;;;7.60;3.20;;;7.20;99.90;;;;;;5044640;28;20049;-80
2022/10/12 07:02:35;;;;;;;8.30;3.22;;;7.20;99.90;;;;;;5045182;28;20056;-82
2022/10/12 07:05:01;;;;;;;6.75;4.32;;;7.30;99.90;;;;;;5044947;28;20387;-81
2022/10/12 07:07:31;;;;;;;6.65;5.15;;;7.30;99.90;;;;;;5045235;28;20033;-84
2022/10/12 07:09:57;;;;;;;11.60;4.68;;;7.30;99.90;;;;;;5027128;28;20036;-83
2022/10/12 07:12:22;;;;;;;6.28;3.88;;;7.30;99.90;;;;;;5027127;28;20056;-81
2022/10/12 07:14:48;;;;;;;6.70;5.88;;;7.30;99.90;;;;;;5026838;28;20470;-83
2022/10/12 07:17:13;;;;;;;9.45;3.90;;;7.30;99.90;;;;;;5026458;28;20033;-85
2022/10/12 07:19:39;;;;;;;5.80;3.88;;;7.30;99.90;;;;;;5044528;28;20067;-85
2022/10/12 07:22:05;;;;;;;6.03;5.13;;;7.30;99.90;;;;;;5044868;28;20044;-82
2022/10/12 07:24:36;;;;;;;7.55;4.63;;;7.40;99.90;;;;;;5048323;28;20173;-80
2022/10/12 07:27:04;;;;;;;6.68;4.63;;;7.40;99.90;;;;;;5064302;28;20040;-82
2022/10/12 07:29:31;;;;;;;7.63;5.25;;;7.40;99.90;;;;;;5064890;28;20051;-81
2022/10/12 07:31:57;;;;;;;6.63;5.25;;;7.50;99.90;;;;;;5029287;28;20071;-81
2022/10/12 07:34:24;;;;;;;7.63;5.43;;;7.50;99.90;;;;;;5046559;28;20599;-83
2022/10/12 07:36:50;;;;;;;8.18;5.78;;;7.60;99.90;;;;;;5046273;28;20418;-83
2022/10/12 07:39:15;;;;;;;11.80;6.35;;;7.70;99.90;;;;;;5064244;28;20047;-80
2022/10/12 07:41:41;;;;;;;10.23;6.82;;;7.70;99.90;;;;;;5063876;28;20426;-82
2022/10/12 07:44:06;;;;;;;18.92;6.03;;;7.80;99.90;;;;;;5063640;28;20042;-83
2022/10/12 07:46:33;;;;;;;8.35;5.82;;;7.90;99.90;;;;;;5061933;28;20044;-83
2022/10/12 07:48:58;;;;;;;11.43;7.53;;;7.90;99.90;;;;;;5064512;28;20039;-82
2022/10/12 07:51:24;;;;;;;10.68;7.13;;;8.00;99.90;;;;;;5063688;28;20037;-80
2022/10/12 07:53:49;;;;;;;10.75;6.25;;;8.10;99.90;;;;;;5045685;28;20043;-78
2022/10/12 07:56:16;;;;;;;11.77;6.50;;;8.10;99.90;;;;;;5063715;28;20052;-83
2022/10/12 07:58:47;;;;;;;6.20;5.28;;;8.20;99.90;;;;;;5045870;28;20075;-79
2022/10/12 08:01:12;;;;;;;13.55;6.53;;;8.20;99.90;;;;;;5062648;28;20068;-81
2022/10/12 08:03:38;;;;;;;9.70;6.88;;;8.20;99.90;;;;;;5063834;28;20177;-83
2022/10/12 08:06:08;;;;;;;6.57;5.85;;;8.30;99.90;;;;;;5063859;28;20451;-83
2022/10/12 08:08:34;;;;;;;25.08;6.95;;;8.30;99.90;;;;;;5063042;28;20064;-81
2022/10/12 08:11:22;;;;;;;14.15;7.47;;;8.30;99.90;;;;;;5064193;28;20423;-81
2022/10/12 08:13:48;;;;;;;7.72;5.20;;;8.40;99.90;;;;;;5055191;28;20491;-81
2022/10/12 08:16:17;;;;;;;7.35;5.53;;;8.40;99.90;;;;;;5044676;28;20083;-81
2022/10/12 08:18:43;;;;;;;15.93;6.85;;;8.50;99.90;;;;;;5045139;28;20505;-83
2022/10/12 08:21:10;;;;;;;8.05;6.55;;;8.50;99.90;;;;;;5045898;28;20045;-83
2022/10/12 08:23:36;;;;;;;13.98;7.38;;;8.60;99.90;;;;;;5044703;28;20045;-80
2022/10/12 08:26:03;;;;;;;13.52;7.45;;;8.60;99.90;;;;;;5046866;28;20045;-81
2022/10/12 08:28:29;;;;;;;29.55;6.60;;;8.70;99.90;;;;;;5043849;28;20429;-82
2022/10/12 08:30:55;;;;;;;9.77;5.90;;;8.70;99.90;;;;;;5024015;28;20052;-82
2022/10/12 08:33:21;;;;;;;12.60;6.13;;;8.80;99.90;;;;;;5025337;28;20415;-80
2022/10/12 08:35:48;;;;;;;8.88;5.97;;;8.80;99.90;;;;;;5025107;28;20139;-82
2022/10/12 08:38:14;;;;;;;10.90;7.15;;;8.90;99.90;;;;;;5025359;28;20049;-82
2022/10/12 08:40:54;;;;;;;12.73;6.22;;;8.90;99.90;;;;;;5042743;28;20037;-81
2022/10/12 08:44:00;;;;;;;14.18;6.25;;;9.00;99.90;;;;;;5025364;28;20072;-81
2022/10/12 08:46:26;;;;;;;13.68;6.57;;;9.10;99.90;;;;;;5023237;28;20406;-81
2022/10/12 08:49:06;;;;;;;8.50;5.20;;;9.20;99.90;;;;;;5024574;28;20052;-81
2022/10/12 08:51:43;;;;;;;9.40;5.07;;;9.20;99.90;;;;;;5024844;28;20098;-79
2022/10/12 08:54:13;;;;;;;10.02;5.13;;;9.30;99.90;;;;;;5042758;28;20047;-78
2022/10/12 08:56:40;;;;;;;8.40;4.85;;;9.30;99.90;;;;;;5042359;28;20550;-79
2022/10/12 08:59:12;;;;;;;5.90;3.95;;;9.40;99.90;;;;;;5042347;28;20118;-82
2022/10/12 09:02:02;;;;;;;9.70;5.82;;;9.50;99.90;;;;;;5041920;28;20041;-80
2022/10/12 09:04:51;;;;;;;9.32;6.55;;;9.50;99.90;;;;;;5025479;28;20060;-80
2022/10/12 09:07:38;;;;;;;10.73;4.43;;;9.60;99.90;;;;;;5042220;28;20482;-81
2022/10/12 09:10:25;;;;;;;7.28;4.38;;;9.70;99.90;;;;;;5024515;28;20049;-80
2022/10/12 09:13:26;;;;;;;12.20;7.05;;;9.70;99.90;;;;;;5042539;28;20128;-81
2022/10/12 09:16:05;;;;;;;8.68;4.82;;;9.70;99.90;;;;;;4969296;28;20081;-78
2022/10/12 09:18:44;;;;;;;10.05;4.28;;;9.80;99.90;;;;;;5025871;28;20275;-80
2022/10/12 09:21:18;;;;;;;8.73;4.18;;;9.90;99.90;;;;;;5024200;28;20045;-80
2022/10/12 09:23:44;;;;;;;5.10;3.67;;;10.00;99.90;;;;;;5042124;28;20044;-79
2022/10/12 09:26:19;;;;;;;7.05;5.00;;;10.10;99.90;;;;;;5024888;28;20068;-80
2022/10/12 09:28:54;;;;;;;8.68;5.15;;;10.10;99.90;;;;;;5044224;28;20053;-79
2022/10/12 09:31:41;;;;;;;20.17;4.07;;;10.30;99.90;;;;;;5061239;28;20089;-81
2022/10/12 09:34:08;;;;;;;6.38;3.83;;;10.30;99.90;;;;;;5043965;28;20240;-81
2022/10/12 09:36:39;;;;;;;10.50;4.57;;;10.40;99.90;;;;;;5043626;28;20048;-80
2022/10/12 09:39:11;;;;;;;6.50;4.18;;;10.40;99.90;;;;;;5061955;28;20044;-79
2022/10/12 09:41:41;;;;;;;7.18;4.60;;;10.50;99.90;;;;;;5061477;28;20087;-80
2022/10/12 09:44:25;;;;;;;12.73;3.72;;;10.60;99.90;;;;;;5062187;28;20476;-80
2022/10/12 09:46:57;;;;;;;5.57;3.85;;;10.70;99.90;;;;;;5060953;28;20037;-82
2022/10/12 09:49:57;;;;;;;8.10;4.80;;;10.70;99.90;;;;;;5062119;28;20183;-79
2022/10/12 09:52:38;;;;;;;4.53;3.33;;;10.70;99.90;;;;;;5042066;28;20068;-81
2022/10/12 09:55:10;;;;;;;5.82;3.90;;;10.80;99.90;;;;;;5044020;28;20487;-81
2022/10/12 09:57:39;;;;;;;5.80;3.33;;;10.80;99.90;;;;;;5061685;28;20052;-81
2022/10/12 10:00:27;;;;;;;8.35;3.85;;;10.80;99.90;;;;;;5043555;28;20044;-81
2022/10/12 10:02:53;;;;;;;9.27;5.53;;;10.90;99.90;;;;;;5061882;28;20041;-81
2022/10/12 10:05:29;;;;;;;8.02;3.88;;;11.00;99.90;;;;;;5043951;28;20056;-81
2022/10/12 10:08:13;;;;;;;6.13;3.55;;;11.00;99.90;;;;;;5043506;28;20056;-82
2022/10/12 10:10:48;;;;;;;5.05;3.40;;;11.10;99.90;;;;;;5046216;28;20114;-81
2022/10/12 10:13:15;;;;;;;6.78;3.15;;;11.10;99.90;;;;;;5066115;28;20044;-81
2022/10/12 10:15:45;;;;;;;7.90;2.58;;;11.10;99.90;;;;;;5064886;28;20478;-81
2022/10/12 10:18:34;;;;;;;18.75;4.13;;;11.20;99.90;;;;;;5047451;28;20036;-82
2022/10/12 10:21:02;;;;;;;3.30;2.10;;;11.20;99.90;;;;;;5065808;28;20292;-80
2022/10/12 10:23:31;;;;;;;5.25;2.80;;;11.20;99.90;;;;;;5014891;28;20246;-77
2022/10/12 10:26:12;;;;;;;3.85;2.45;;;11.20;99.90;;;;;;5062576;28;20045;-77
2022/10/12 10:28:40;;;;;;;5.82;3.28;;;11.30;99.90;;;;;;5048597;28;20081;-78
2022/10/12 10:31:20;;;;;;;5.00;2.05;;;11.30;99.90;;;;;;5065826;28;20626;-77
2022/10/12 10:34:17;;;;;;;7.47;1.98;;;11.30;99.90;;;;;;5026886;28;20044;-77
2022/10/12 10:37:04;;;;;;;8.45;2.88;;;11.30;99.90;;;;;;5027074;28;20398;-77
2022/10/12 10:39:51;;;;;;;6.57;2.40;;;11.40;99.90;;;;;;5026398;28;20135;-77
2022/10/12 10:42:35;;;;;;;3.03;1.83;;;11.30;99.90;;;;;;5036070;28;20040;-78
2022/10/12 10:45:29;;;;;;;14.85;2.67;;;11.40;99.90;;;;;;5030173;28;20044;-77
2022/10/12 10:48:17;;;;;;;3.72;2.15;;;11.50;99.90;;;;;;5046537;28;20040;-77
2022/10/12 10:50:49;;;;;;;2.38;1.70;;;11.60;99.90;;;;;;5045982;28;20044;-77
2022/10/12 10:53:18;;;;;;;5.07;2.70;;;11.60;99.90;;;;;;5046008;28;20033;-77
2022/10/12 10:56:00;;;;;;;4.38;3.20;;;11.60;99.90;;;;;;5028201;28;20099;-77
2022/10/12 10:58:35;;;;;;;5.75;2.50;;;11.70;99.90;;;;;;5046492;28;20051;-78
2022/10/12 11:01:13;;;;;;;10.93;2.38;;;11.70;99.90;;;;;;5027676;28;20044;-78
2022/10/12 11:03:38;;;;;;;5.28;2.10;;;11.70;99.90;;;;;;5028373;28;20052;-80
2022/10/12 11:06:22;;;;;;;13.60;2.55;;;11.70;99.90;;;;;;5045892;28;20049;-81
2022/10/12 11:08:50;;;;;;;4.25;2.10;;;11.80;99.90;;;;;;5045670;28;20119;-78
2022/10/12 11:11:21;;;;;;;5.88;2.65;;;11.90;99.90;;;;;;5028060;28;20048;-82
2022/10/12 11:14:13;;;;;;;6.72;2.40;;;11.90;99.90;;;;;;5045871;28;20446;-78
2022/10/12 11:16:57;;;;;;;9.70;3.78;;;11.90;99.90;;;;;;5014012;28;20056;-80
2022/10/12 11:19:28;;;;;;;6.55;2.22;;;11.90;99.90;;;;;;5025746;28;20045;-78
2022/10/12 11:22:02;;;;;;;6.32;2.55;;;11.90;99.90;;;;;;5007818;28;20081;-81
2022/10/12 11:24:45;;;;;;;4.00;2.22;;;11.90;99.90;;;;;;5032612;28;20044;-82
2022/10/12 11:27:16;;;;;;;4.40;2.17;;;12.00;99.90;;;;;;5027858;28;20041;-82
2022/10/12 11:29:42;;;;;;;3.83;2.38;;;12.00;99.90;;;;;;5027082;28;20380;-81
2022/10/12 11:32:25;;;;;;;6.93;2.47;;;12.00;99.90;;;;;;5045973;28;20048;-81
2022/10/12 11:34:55;;;;;;;8.98;2.90;;;12.10;99.90;;;;;;5027853;28;20049;-82
2022/10/12 11:37:46;;;;;;;7.32;2.92;;;12.10;99.90;;;;;;5044800;28;20041;-83
2022/10/12 11:40:20;;;;;;;6.95;2.05;;;12.20;99.90;;;;;;5045204;28;20041;-78
2022/10/12 11:42:48;;;;;;;3.97;2.20;;;12.30;99.90;;;;;;5005545;28;20063;-82
2022/10/12 11:45:28;;;;;;;6.68;3.33;;;12.30;99.90;;;;;;5044297;28;20049;-80
2022/10/12 11:47:59;;;;;;;5.38;2.40;;;12.30;99.90;;;;;;5017289;28;20098;-82
2022/10/12 11:50:38;;;;;;;2.58;1.67;;;12.40;99.90;;;;;;5027491;28;20041;-78
2022/10/12 11:53:29;;;;;;;4.20;1.85;;;12.30;99.90;;;;;;5027560;28;20384;-85
2022/10/12 11:56:10;;;;;;;10.95;2.13;;;12.40;99.90;;;;;;5045041;28;20044;-86
2022/10/12 11:58:42;;;;;;;5.72;2.20;;;12.40;99.90;;;;;;5026823;28;20049;-82
2022/10/12 12:01:37;;;;;;;7.65;2.28;;;12.40;99.90;;;;;;5026435;28;20045;-84
2022/10/12 12:04:15;;;;;;;7.93;2.75;;;12.40;99.90;;;;;;4956329;28;20047;-81
2022/10/12 12:06:49;;;;;;;15.48;2.80;;;12.40;99.90;;;;;;5026816;28;20056;-84
2022/10/12 12:09:20;;;;;;;4.30;2.53;;;12.40;99.90;;;;;;5034887;28;20065;-80
2022/10/12 12:11:45;;;;;;;8.00;2.58;;;12.40;99.90;;;;;;5032632;28;20112;-83
2022/10/12 12:14:20;;;;;;;9.50;2.47;;;12.40;99.90;;;;;;5032920;28;20136;-83
2022/10/12 12:16:47;;;;;;;4.25;2.10;;;12.50;99.90;;;;;;5004178;28;20110;-83
2022/10/12 12:19:16;;;;;;;4.15;2.70;;;12.50;99.90;;;;;;5040962;28;20045;-80
2022/10/12 12:22:19;;;;;;;5.40;3.47;;;12.50;99.90;;;;;;5038921;28;20052;-83
2022/10/12 12:24:55;;;;;;;5.10;2.42;;;12.50;99.90;;;;;;5013238;28;20132;-81
2022/10/12 12:27:22;;;;;;;3.75;2.47;;;12.50;99.90;;;;;;5024842;28;20040;-84
2022/10/12 12:29:52;;;;;;;9.68;2.08;;;12.50;99.90;;;;;;5043310;28;20308;-80
2022/10/12 12:32:19;;;;;;;5.82;2.40;;;12.50;99.90;;;;;;5025703;28;20048;-83
2022/10/12 12:34:57;;;;;;;4.38;2.15;;;12.60;99.90;;;;;;5044126;28;20119;-83
2022/10/12 12:37:27;;;;;;;5.38;2.90;;;12.60;99.90;;;;;;5044018;28;20048;-81
2022/10/12 12:39:56;;;;;;;3.55;1.90;;;12.60;99.90;;;;;;5043695;28;20044;-80
2022/10/12 12:42:30;;;;;;;3.65;2.50;;;12.60;99.90;;;;;;5044792;28;20045;-83
2022/10/12 12:44:56;;;;;;;8.40;3.22;;;12.60;99.90;;;;;;5037487;28;20159;-77
2022/10/12 12:47:42;;;;;;;6.97;2.92;;;12.60;99.90;;;;;;5013441;28;20634;-80
2022/10/12 12:50:34;;;;;;;6.43;2.63;;;12.60;99.90;;;;;;5023401;28;20053;-79
2022/10/12 12:53:19;;;;;;;3.65;2.55;;;12.60;99.90;;;;;;5007303;28;20091;-82
2022/10/12 12:56:06;;;;;;;6.57;2.90;;;12.60;99.90;;;;;;5006606;28;20050;-83
2022/10/12 12:58:48;;;;;;;4.05;2.05;;;12.60;99.90;;;;;;5041563;28;20088;-82
2022/10/12 13:01:41;;;;;;;5.32;1.85;;;12.60;99.90;;;;;;5042840;28;20041;-85
2022/10/12 13:04:23;;;;;;;6.78;2.97;;;12.70;99.90;;;;;;5025670;28;20052;-80
2022/10/12 13:07:32;;;;;;;3.50;2.92;;;12.70;99.90;;;;;;5030148;28;20041;-80
2022/10/12 13:10:25;;;;;;;8.88;2.70;;;12.70;99.90;;;;;;5006711;28;20057;-79
2022/10/12 13:13:12;;;;;;;7.88;3.47;;;12.70;99.90;;;;;;5038971;28;20120;-80
2022/10/12 13:15:59;;;;;;;3.30;2.10;;;12.70;99.90;;;;;;5042639;28;20133;-82